sensor_id;sensor_type;location;lat;lon;timestamp;temperature;humidity
41557;DHT22;27720;51.992;5.890;2022-12-18T08:12:11;-2.00;99.90
41557;DHT22;27720;51.992;5.890;2022-12-18T08:14:37;-2.00;99.90
41557;DHT22;27720;51.992;5.890;2022-12-18T08:17:03;-2.00;99.90
41557;DHT22;27720;51.992;5.890;2022-12-18T08:19:31;-1.90;99.90
41557;DHT22;27720;51.992;5.890;2022-12-18T08:21:57;-1.90;99.90
41557;DHT22;27720;51.992;5.890;2022-12-18T08:24:23;-1.90;99.90
41557;DHT22;27720;51.992;5.890;2022-12-18T08:26:49;-1.80;99.90
41557;DHT22;27720;51.992;5.890;2022-12-18T08:29:16;-1.90;99.90
41557;DHT22;27720;51.992;5.890;2022-12-18T08:31:45;-1.80;99.90
41557;DHT22;27720;51.992;5.890;2022-12-18T08:34:12;-1.80;99.90
41557;DHT22;27720;51.992;5.890;2022-12-18T08:36:40;-1.90;99.90
41557;DHT22;27720;51.992;5.890;2022-12-18T08:39:06;-1.80;99.90
41557;DHT22;27720;51.992;5.890;2022-12-18T08:41:32;-1.70;99.90
41557;DHT22;27720;51.992;5.890;2022-12-18T08:43:59;-1.70;99.90
41557;DHT22;27720;51.992;5.890;2022-12-18T08:46:55;-1.70;99.90
41557;DHT22;27720;51.992;5.890;2022-12-18T08:49:31;-1.60;99.90
41557;DHT22;27720;51.992;5.890;2022-12-18T08:51:58;-1.60;99.90
41557;DHT22;27720;51.992;5.890;2022-12-18T08:54:24;-1.50;99.90
41557;DHT22;27720;51.992;5.890;2022-12-18T08:56:51;-1.50;99.90
41557;DHT22;27720;51.992;5.890;2022-12-18T08:59:18;-1.50;99.90
41557;DHT22;27720;51.992;5.890;2022-12-18T09:01:44;-1.50;99.90
41557;DHT22;27720;51.992;5.890;2022-12-18T09:04:11;-1.40;99.90
41557;DHT22;27720;51.992;5.890;2022-12-18T09:06:37;-1.40;99.90
41557;DHT22;27720;51.992;5.890;2022-12-18T09:09:04;-1.40;99.90
41557;DHT22;27720;51.992;5.890;2022-12-18T09:11:31;-1.30;99.90
41557;DHT22;27720;51.992;5.890;2022-12-18T09:13:59;-1.30;99.90
41557;DHT22;27720;51.992;5.890;2022-12-18T09:16:26;-1.20;99.90
41557;DHT22;27720;51.992;5.890;2022-12-18T09:18:56;-1.20;99.90
41557;DHT22;27720;51.992;5.890;2022-12-18T09:21:26;-1.10;99.90
41557;DHT22;27720;51.992;5.890;2022-12-18T09:23:54;-1.10;99.90
41557;DHT22;27720;51.992;5.890;2022-12-18T09:26:24;-1.00;99.90
41557;DHT22;27720;51.992;5.890;2022-12-18T09:28:54;-0.90;99.90
41557;DHT22;27720;51.992;5.890;2022-12-18T09:31:22;-1.00;99.90
41557;DHT22;27720;51.992;5.890;2022-12-18T09:33:48;-0.90;99.90
41557;DHT22;27720;51.992;5.890;2022-12-18T09:36:15;-0.80;99.90
41557;DHT22;27720;51.992;5.890;2022-12-18T09:38:45;-0.80;99.90
41557;DHT22;27720;51.992;5.890;2022-12-18T09:41:43;-0.70;99.90
41557;DHT22;27720;51.992;5.890;2022-12-18T09:44:23;-0.60;99.90
41557;DHT22;27720;51.992;5.890;2022-12-18T09:47:10;-0.60;99.90
41557;DHT22;27720;51.992;5.890;2022-12-18T09:49:43;-0.60;99.90
41557;DHT22;27720;51.992;5.890;2022-12-18T09:52:26;-0.50;99.90
41557;DHT22;27720;51.992;5.890;2022-12-18T09:55:16;-0.40;99.90
41557;DHT22;27720;51.992;5.890;2022-12-18T10:00:35;-0.40;99.90
41557;DHT22;27720;51.992;5.890;2022-12-18T10:03:09;-0.30;99.90
41557;DHT22;27720;51.992;5.890;2022-12-18T10:10:55;-0.10;99.90
41557;DHT22;27720;51.992;5.890;2022-12-18T10:13:41;-0.10;99.90
41557;DHT22;27720;51.992;5.890;2022-12-18T10:16:29;0.00;99.90
41557;DHT22;27720;51.992;5.890;2022-12-18T10:27:33;0.10;99.90
41557;DHT22;27720;51.992;5.890;2022-12-18T10:29:59;0.20;99.90
41557;DHT22;27720;51.992;5.890;2022-12-18T10:32:30;0.20;99.90
41557;DHT22;27720;51.992;5.890;2022-12-18T10:34:58;0.20;99.90
41557;DHT22;27720;51.992;5.890;2022-12-18T10:37:29;0.20;99.90
41557;DHT22;27720;51.992;5.890;2022-12-18T10:40:11;0.30;99.90
41557;DHT22;27720;51.992;5.890;2022-12-18T10:42:49;0.30;99.90
41557;DHT22;27720;51.992;5.890;2022-12-18T10:45:31;0.40;99.90
41557;DHT22;27720;51.992;5.890;2022-12-18T10:47:57;0.40;99.90
41557;DHT22;27720;51.992;5.890;2022-12-18T10:50:32;0.40;99.90
41557;DHT22;27720;51.992;5.890;2022-12-18T10:53:01;0.50;99.90
41557;DHT22;27720;51.992;5.890;2022-12-18T10:55:34;0.50;99.90
41557;DHT22;27720;51.992;5.890;2022-12-18T10:58:24;0.50;99.90
41557;DHT22;27720;51.992;5.890;2022-12-18T11:01:10;0.60;99.60
41557;DHT22;27720;51.992;5.890;2022-12-18T11:06:08;0.60;99.50
41557;DHT22;27720;51.992;5.890;2022-12-18T11:08:37;0.60;99.50
41557;DHT22;27720;51.992;5.890;2022-12-18T11:11:07;0.70;99.30
41557;DHT22;27720;51.992;5.890;2022-12-18T21:52:38;-0.40;99.90
41557;DHT22;27720;51.992;5.890;2022-12-18T21:55:05;-0.30;99.90
41557;DHT22;27720;51.992;5.890;2022-12-18T21:57:33;0.10;99.90
41557;DHT22;27720;51.992;5.890;2022-12-18T21:59:59;0.50;99.90
41557;DHT22;27720;51.992;5.890;2022-12-18T22:02:26;0.80;99.90
41557;DHT22;27720;51.992;5.890;2022-12-18T22:04:52;1.00;99.90
41557;DHT22;27720;51.992;5.890;2022-12-18T22:07:18;1.20;99.90
41557;DHT22;27720;51.992;5.890;2022-12-18T22:09:44;1.40;99.90
41557;DHT22;27720;51.992;5.890;2022-12-18T22:12:12;1.50;99.90
41557;DHT22;27720;51.992;5.890;2022-12-18T22:14:40;1.60;99.90
41557;DHT22;27720;51.992;5.890;2022-12-18T22:17:06;1.70;99.90
41557;DHT22;27720;51.992;5.890;2022-12-18T22:19:32;1.80;99.90
41557;DHT22;27720;51.992;5.890;2022-12-18T22:22:00;1.90;99.90
41557;DHT22;27720;51.992;5.890;2022-12-18T22:24:36;2.00;99.90
41557;DHT22;27720;51.992;5.890;2022-12-18T22:27:08;2.00;99.90
41557;DHT22;27720;51.992;5.890;2022-12-18T22:29:33;2.10;99.90
41557;DHT22;27720;51.992;5.890;2022-12-18T22:32:21;2.10;99.90
41557;DHT22;27720;51.992;5.890;2022-12-18T22:34:47;2.10;99.90
41557;DHT22;27720;51.992;5.890;2022-12-18T22:37:13;2.10;99.90
41557;DHT22;27720;51.992;5.890;2022-12-18T22:39:39;2.10;99.90
41557;DHT22;27720;51.992;5.890;2022-12-18T22:42:05;2.10;99.90
41557;DHT22;27720;51.992;5.890;2022-12-18T22:44:31;2.10;99.90
41557;DHT22;27720;51.992;5.890;2022-12-18T22:46:57;2.10;99.90
41557;DHT22;27720;51.992;5.890;2022-12-18T22:49:24;2.10;99.90
41557;DHT22;27720;51.992;5.890;2022-12-18T22:51:51;2.20;99.90
41557;DHT22;27720;51.992;5.890;2022-12-18T22:54:18;2.10;99.90
41557;DHT22;27720;51.992;5.890;2022-12-18T22:56:44;2.10;99.90
41557;DHT22;27720;51.992;5.890;2022-12-18T22:59:18;2.10;99.90
41557;DHT22;27720;51.992;5.890;2022-12-18T23:01:45;2.10;99.90
41557;DHT22;27720;51.992;5.890;2022-12-18T23:04:14;2.10;99.90
41557;DHT22;27720;51.992;5.890;2022-12-18T23:06:41;2.10;99.90
41557;DHT22;27720;51.992;5.890;2022-12-18T23:09:16;2.10;99.90
41557;DHT22;27720;51.992;5.890;2022-12-18T23:11:43;2.20;99.90
41557;DHT22;27720;51.992;5.890;2022-12-18T23:14:09;2.10;99.90
41557;DHT22;27720;51.992;5.890;2022-12-18T23:16:37;2.10;99.90
41557;DHT22;27720;51.992;5.890;2022-12-18T23:19:04;2.10;99.90
41557;DHT22;27720;51.992;5.890;2022-12-18T23:21:30;2.10;99.90
41557;DHT22;27720;51.992;5.890;2022-12-18T23:23:56;2.10;99.90
41557;DHT22;27720;51.992;5.890;2022-12-18T23:26:23;2.10;99.90
41557;DHT22;27720;51.992;5.890;2022-12-18T23:28:51;2.10;99.90
41557;DHT22;27720;51.992;5.890;2022-12-18T23:31:22;2.10;99.90
41557;DHT22;27720;51.992;5.890;2022-12-18T23:33:50;2.10;99.90
41557;DHT22;27720;51.992;5.890;2022-12-18T23:36:17;2.10;99.90
41557;DHT22;27720;51.992;5.890;2022-12-18T23:38:47;2.10;99.90
41557;DHT22;27720;51.992;5.890;2022-12-18T23:41:14;2.10;99.90
41557;DHT22;27720;51.992;5.890;2022-12-18T23:43:40;2.10;99.90
41557;DHT22;27720;51.992;5.890;2022-12-18T23:46:30;2.10;99.90
41557;DHT22;27720;51.992;5.890;2022-12-18T23:49:00;2.20;99.90
41557;DHT22;27720;51.992;5.890;2022-12-18T23:51:27;2.20;99.90
41557;DHT22;27720;51.992;5.890;2022-12-18T23:53:55;2.20;99.90
41557;DHT22;27720;51.992;5.890;2022-12-18T23:56:21;2.20;99.90
41557;DHT22;27720;51.992;5.890;2022-12-18T23:58:48;2.20;99.90
